Time;durP1;ratioP1;P1;durP2;ratioP2;P2;SDS_P1;SDS_P2;PMS_P1;PMS_P2;Temp;Humidity;BMP_temperature;BMP_pressure;BME280_temperature;BME280_humidity;BME280_pressure;Samples;Min_cycle;Max_cycle;Signal;HPM_P1;HPM_P2
2021/04/17 00:02:24;;;;;;;;;0.75;0.75;;;;;;;;3559332;39;113987;-69
2021/04/17 00:04:50;;;;;;;;;4.00;4.00;;;;;;;;3558091;39;111985;-69
2021/04/17 00:07:17;;;;;;;;;4.00;4.00;;;;;;;;3559668;39;113118;-69
2021/04/17 00:09:43;;;;;;;;;5.25;4.00;;;;;;;;3560661;39;113991;-70
2021/04/17 00:12:12;;;;;;;;;4.00;4.00;;;;;;;;3559280;39;113347;-71
2021/04/17 00:14:39;;;;;;;;;4.00;4.00;;;;;;;;3558271;39;113944;-69
2021/04/17 00:17:06;;;;;;;;;3.50;3.50;;;;;;;;3558769;39;112209;-69
2021/04/17 00:19:32;;;;;;;;;4.00;3.00;;;;;;;;3559126;39;113117;-70
2021/04/17 00:21:58;;;;;;;;;4.00;4.00;;;;;;;;3557984;39;113824;-71
2021/04/17 00:24:24;;;;;;;;;9.75;6.00;;;;;;;;3559499;39;111985;-71
2021/04/17 00:26:50;;;;;;;;;4.50;4.50;;;;;;;;3558123;39;112704;-70
2021/04/17 00:29:17;;;;;;;;;6.50;5.00;;;;;;;;3559073;39;113830;-71
2021/04/17 00:31:43;;;;;;;;;7.00;4.00;;;;;;;;3560950;39;112116;-71
2021/04/17 00:34:09;;;;;;;;;8.00;4.00;;;;;;;;3558467;39;114576;-71
2021/04/17 00:36:36;;;;;;;;;6.00;6.00;;;;;;;;3558815;39;111683;-71
2021/04/17 00:39:02;;;;;;;;;5.25;5.25;;;;;;;;3558609;39;113585;-70
2021/04/17 00:41:28;;;;;;;;;6.00;6.00;;;;;;;;3558823;39;113586;-70
2021/04/17 00:43:54;;;;;;;;;4.25;4.25;;;;;;;;3558049;39;111879;-70
2021/04/17 00:46:21;;;;;;;;;4.00;3.25;;;;;;;;3559477;39;113454;-71
2021/04/17 00:48:47;;;;;;;;;5.25;4.25;;;;;;;;3557372;39;115142;-71
2021/04/17 00:51:14;;;;;;;;;4.00;4.00;;;;;;;;3561619;39;111982;-71
2021/04/17 00:53:41;;;;;;;;;4.00;4.00;;;;;;;;3557803;39;113776;-71
2021/04/17 00:56:08;;;;;;;;;3.50;3.50;;;;;;;;3558535;39;112275;-69
2021/04/17 00:58:34;;;;;;;;;3.50;3.50;;;;;;;;3558691;39;114457;-69
2021/04/17 01:01:01;;;;;;;;;3.75;3.75;;;;;;;;3557637;39;113770;-71
2021/04/17 01:03:31;;;;;;;;;7.25;3.75;;;;;;;;3556963;39;113708;-70
2021/04/17 01:06:04;;;;;;;;;6.50;6.00;;;;;;;;3558010;39;113240;-70
2021/04/17 01:08:34;;;;;;;;;2.25;2.25;;;;;;;;3558446;39;113985;-71
2021/04/17 01:11:03;;;;;;;;;6.00;6.00;;;;;;;;3558063;39;111893;-70
2021/04/17 01:13:29;;;;;;;;;4.50;4.00;;;;;;;;3561072;39;113335;-71
2021/04/17 01:15:56;;;;;;;;;3.00;3.00;;;;;;;;3557784;39;112151;-71
2021/04/17 01:18:23;;;;;;;;;4.75;3.75;;;;;;;;3560273;39;113425;-70
2021/04/17 01:20:51;;;;;;;;;4.00;4.00;;;;;;;;3558482;39;113896;-70
2021/04/17 01:23:20;;;;;;;;;4.50;4.00;;;;;;;;3559008;39;111894;-70
2021/04/17 01:25:49;;;;;;;;;6.00;6.00;;;;;;;;3560633;39;113442;-70
2021/04/17 01:28:16;;;;;;;;;8.00;4.50;;;;;;;;3558479;39;113351;-70
2021/04/17 01:30:44;;;;;;;;;6.00;3.50;;;;;;;;3560355;39;111929;-70
2021/04/17 01:33:10;;;;;;;;;3.75;3.75;;;;;;;;3559341;39;113144;-70
2021/04/17 01:35:38;;;;;;;;;5.50;5.50;;;;;;;;3562075;39;114133;-70
2021/04/17 01:38:14;;;;;;;;;5.50;4.00;;;;;;;;3559576;39;113371;-70
2021/04/17 01:40:43;;;;;;;;;3.25;3.00;;;;;;;;3559626;39;113873;-72
2021/04/17 01:43:10;;;;;;;;;4.00;4.00;;;;;;;;3559353;39;112919;-70
2021/04/17 01:45:36;;;;;;;;;3.75;3.75;;;;;;;;3559811;39;113171;-73
2021/04/17 01:48:03;;;;;;;;;5.50;4.00;;;;;;;;3559353;39;113890;-70
2021/04/17 01:50:30;;;;;;;;;4.00;4.00;;;;;;;;3559375;39;111935;-70
2021/04/17 01:52:57;;;;;;;;;6.00;4.00;;;;;;;;3560329;39;113843;-70
2021/04/17 01:55:23;;;;;;;;;3.25;3.25;;;;;;;;3558317;39;113827;-70
2021/04/17 01:57:50;;;;;;;;;6.00;3.25;;;;;;;;3563563;39;111841;-70
2021/04/17 02:00:18;;;;;;;;;5.50;5.50;;;;;;;;3558423;39;114001;-70
2021/04/17 02:02:44;;;;;;;;;2.00;2.00;;;;;;;;3560278;39;112023;-70
2021/04/17 02:05:10;;;;;;;;;3.00;3.00;;;;;;;;3559271;39;113261;-70
2021/04/17 02:07:36;;;;;;;;;6.00;3.75;;;;;;;;3559314;39;113843;-70
2021/04/17 02:10:05;;;;;;;;;5.00;5.00;;;;;;;;3559729;39;111843;-71
2021/04/17 02:12:31;;;;;;;;;6.00;3.75;;;;;;;;3559287;39;113254;-70
2021/04/17 02:14:57;;;;;;;;;5.50;3.75;;;;;;;;3559585;39;113943;-71
2021/04/17 02:17:26;;;;;;;;;4.00;4.00;;;;;;;;3556977;39;111887;-71
2021/04/17 02:19:55;;;;;;;;;6.00;4.00;;;;;;;;3562583;39;113216;-70
2021/04/17 02:22:21;;;;;;;;;6.00;4.00;;;;;;;;3558600;39;111810;-70
2021/04/17 02:24:48;;;;;;;;;6.25;5.00;;;;;;;;3558937;39;113184;-70
2021/04/17 02:27:14;;;;;;;;;6.00;3.00;;;;;;;;3559597;39;115167;-70
2021/04/17 02:29:40;;;;;;;;;3.75;3.75;;;;;;;;3559012;39;111920;-69
2021/04/17 02:32:13;;;;;;;;;3.00;3.00;;;;;;;;3559643;39;113465;-69
2021/04/17 02:34:40;;;;;;;;;4.00;3.00;;;;;;;;3558692;39;113935;-69
2021/04/17 02:37:06;;;;;;;;;4.00;2.50;;;;;;;;3559479;39;111851;-70
2021/04/17 02:39:32;;;;;;;;;4.00;4.00;;;;;;;;3559651;39;113261;-69
2021/04/17 02:41:58;;;;;;;;;6.00;2.25;;;;;;;;3561275;39;113797;-69
2021/04/17 02:44:24;;;;;;;;;8.00;7.00;;;;;;;;3560056;39;113249;-69
2021/04/17 02:46:50;;;;;;;;;4.00;3.00;;;;;;;;3558145;39;114140;-69
2021/04/17 02:49:16;;;;;;;;;4.00;4.00;;;;;;;;3558444;39;111839;-69
2021/04/17 02:51:43;;;;;;;;;4.50;4.50;;;;;;;;3559993;39;113358;-69
2021/04/17 02:54:10;;;;;;;;;7.50;6.00;;;;;;;;3556482;39;112921;-69
2021/04/17 02:56:36;;;;;;;;;6.50;3.25;;;;;;;;3559644;39;112184;-70
2021/04/17 02:59:02;;;;;;;;;6.00;4.00;;;;;;;;3559249;39;113202;-70
2021/04/17 03:01:29;;;;;;;;;4.50;4.50;;;;;;;;3561260;39;113891;-70
2021/04/17 03:03:55;;;;;;;;;4.00;4.00;;;;;;;;3559732;39;113412;-70
2021/04/17 03:06:21;;;;;;;;;4.00;4.00;;;;;;;;3557988;39;115072;-71
2021/04/17 03:08:48;;;;;;;;;6.50;6.25;;;;;;;;3560233;39;111874;-70
2021/04/17 03:11:14;;;;;;;;;5.50;5.50;;;;;;;;3558346;39;113609;-70
2021/04/17 03:13:40;;;;;;;;;4.00;4.00;;;;;;;;3558795;39;113967;-70
2021/04/17 03:16:06;;;;;;;;;4.50;4.50;;;;;;;;3559288;39;111928;-70
2021/04/17 03:18:32;;;;;;;;;4.00;3.00;;;;;;;;3559282;39;113501;-70
2021/04/17 03:20:59;;;;;;;;;6.25;4.00;;;;;;;;3558584;39;113892;-69
2021/04/17 03:23:26;;;;;;;;;6.50;4.00;;;;;;;;3562655;39;112991;-69
2021/04/17 03:25:52;;;;;;;;;4.50;4.50;;;;;;;;3558081;39;114044;-69
2021/04/17 03:28:18;;;;;;;;;5.50;5.50;;;;;;;;3558757;39;111765;-69
2021/04/17 03:30:45;;;;;;;;;5.00;5.00;;;;;;;;3559582;39;113355;-69
2021/04/17 03:33:11;;;;;;;;;6.00;6.00;;;;;;;;3558520;39;113945;-69
2021/04/17 03:35:37;;;;;;;;;6.00;4.00;;;;;;;;3559875;39;111851;-69
2021/04/17 03:38:03;;;;;;;;;4.00;4.00;;;;;;;;3559255;39;113330;-69
2021/04/17 03:40:29;;;;;;;;;4.50;4.50;;;;;;;;3558596;39;114991;-70
2021/04/17 03:42:57;;;;;;;;;3.00;3.00;;;;;;;;3558651;39;111998;-71
2021/04/17 03:45:23;;;;;;;;;4.00;4.00;;;;;;;;3561956;39;114328;-71
2021/04/17 03:47:49;;;;;;;;;6.75;4.50;;;;;;;;3558408;39;112100;-71
2021/04/17 03:50:16;;;;;;;;;4.00;4.00;;;;;;;;3558325;39;113461;-70
2021/04/17 03:52:42;;;;;;;;;7.25;6.00;;;;;;;;3559238;39;113882;-70
2021/04/17 03:55:12;;;;;;;;;7.25;6.75;;;;;;;;3558679;39;111815;-69
2021/04/17 03:57:39;;;;;;;;;7.00;6.00;;;;;;;;3559619;39;113506;-69
2021/04/17 04:00:07;;;;;;;;;7.00;7.00;;;;;;;;3558336;39;114407;-70
2021/04/17 04:02:33;;;;;;;;;0.25;0.00;;;;;;;;3559153;39;111790;-71
2021/04/17 04:04:59;;;;;;;;;8.00;6.25;;;;;;;;3559205;39;113304;-71
2021/04/17 04:07:25;;;;;;;;;5.50;4.00;;;;;;;;3558848;39;113071;-70
2021/04/17 04:09:52;;;;;;;;;7.50;7.00;;;;;;;;3559825;39;113453;-70
2021/04/17 04:12:18;;;;;;;;;6.50;6.50;;;;;;;;3557594;39;114387;-70
2021/04/17 04:14:44;;;;;;;;;6.25;4.50;;;;;;;;3559883;39;112285;-70
2021/04/17 04:17:10;;;;;;;;;7.75;7.75;;;;;;;;3558428;39;113304;-70
2021/04/17 04:19:37;;;;;;;;;5.50;4.00;;;;;;;;3558850;39;114532;-70
2021/04/17 04:22:03;;;;;;;;;8.00;4.50;;;;;;;;3558673;39;112040;-70
2021/04/17 04:24:29;;;;;;;;;6.00;6.00;;;;;;;;3558805;39;113603;-70
2021/04/17 04:26:55;;;;;;;;;7.75;6.50;;;;;;;;3558928;39;113598;-70
2021/04/17 04:29:21;;;;;;;;;4.50;4.50;;;;;;;;3560689;39;113339;-70
2021/04/17 04:31:47;;;;;;;;;5.50;3.50;;;;;;;;3559557;39;113618;-70
2021/04/17 04:34:14;;;;;;;;;4.00;4.00;;;;;;;;3557980;39;112066;-70
2021/04/17 04:36:40;;;;;;;;;7.25;6.00;;;;;;;;3559411;39;112918;-70
2021/04/17 04:39:06;;;;;;;;;4.00;4.00;;;;;;;;3557892;39;114403;-70
2021/04/17 04:41:32;;;;;;;;;5.25;5.00;;;;;;;;3558678;39;111672;-71
2021/04/17 04:43:58;;;;;;;;;8.75;6.00;;;;;;;;3558863;39;113991;-71
2021/04/17 04:46:24;;;;;;;;;8.25;6.25;;;;;;;;3557756;39;114094;-70
2021/04/17 04:48:50;;;;;;;;;6.25;6.25;;;;;;;;3559588;39;112125;-70
2021/04/17 04:51:17;;;;;;;;;6.00;4.00;;;;;;;;3559929;39;113414;-70
2021/04/17 04:53:43;;;;;;;;;6.67;6.00;;;;;;;;3560508;39;111936;-71
2021/04/17 04:56:09;;;;;;;;;6.00;6.00;;;;;;;;3559497;39;113324;-69
2021/04/17 04:58:35;;;;;;;;;6.50;4.00;;;;;;;;3559735;39;114044;-69
2021/04/17 05:01:01;;;;;;;;;3.00;3.00;;;;;;;;3558593;39;111977;-70
2021/04/17 05:03:27;;;;;;;;;4.00;3.25;;;;;;;;3560364;39;113255;-70
2021/04/17 05:05:53;;;;;;;;;5.50;4.00;;;;;;;;3558796;39;113895;-70
2021/04/17 05:08:20;;;;;;;;;5.00;5.00;;;;;;;;3560848;39;112454;-71
2021/04/17 05:10:46;;;;;;;;;3.00;3.00;;;;;;;;3561192;39;113298;-69
2021/04/17 05:13:13;;;;;;;;;7.00;5.50;;;;;;;;3560461;39;112141;-69
2021/04/17 05:15:39;;;;;;;;;6.00;4.50;;;;;;;;3559511;39;113475;-69
2021/04/17 05:18:05;;;;;;;;;6.00;3.25;;;;;;;;3559455;39;114250;-70
2021/04/17 05:20:31;;;;;;;;;4.00;4.00;;;;;;;;3559878;39;111956;-71
2021/04/17 05:22:57;;;;;;;;;6.00;4.50;;;;;;;;3559509;39;113874;-72
2021/04/17 05:25:24;;;;;;;;;6.25;4.00;;;;;;;;3559852;39;114393;-71
2021/04/17 05:27:50;;;;;;;;;6.25;4.00;;;;;;;;3559007;39;111948;-71
2021/04/17 05:30:17;;;;;;;;;3.75;3.00;;;;;;;;3560756;39;113221;-73
2021/04/17 05:32:43;;;;;;;;;6.00;5.00;;;;;;;;3560337;39;114748;-71
2021/04/17 05:35:12;;;;;;;;;5.50;5.00;;;;;;;;3560847;39;113428;-72
2021/04/17 05:37:38;;;;;;;;;4.00;4.00;;;;;;;;3559803;39;114365;-72
2021/04/17 05:40:05;;;;;;;;;3.00;3.00;;;;;;;;3558666;39;112398;-71
2021/04/17 05:42:32;;;;;;;;;3.00;3.00;;;;;;;;3559844;39;113438;-71
2021/04/17 05:44:58;;;;;;;;;5.50;4.00;;;;;;;;3559405;39;114387;-70
2021/04/17 05:47:24;;;;;;;;;4.50;4.50;;;;;;;;3559096;39;111923;-69
2021/04/17 05:49:50;;;;;;;;;5.50;4.00;;;;;;;;3560581;39;113684;-70
2021/04/17 05:52:16;;;;;;;;;4.50;3.50;;;;;;;;3558097;39;113935;-72
2021/04/17 05:54:43;;;;;;;;;5.00;5.00;;;;;;;;3563260;39;112413;-76
2021/04/17 05:57:09;;;;;;;;;6.00;6.00;;;;;;;;3558628;39;113940;-75
2021/04/17 05:59:35;;;;;;;;;4.50;4.50;;;;;;;;3559719;39;111886;-74
2021/04/17 06:02:02;;;;;;;;;5.00;5.00;;;;;;;;3559481;39;113237;-80
2021/04/17 06:04:28;;;;;;;;;3.75;3.75;;;;;;;;3558928;39;114143;-78
2021/04/17 06:06:54;;;;;;;;;5.00;4.00;;;;;;;;3558985;39;112064;-78
2021/04/17 06:09:21;;;;;;;;;5.50;4.00;;;;;;;;3558622;39;113232;-74
2021/04/17 06:11:47;;;;;;;;;5.50;5.50;;;;;;;;3560080;39;113942;-75
2021/04/17 06:14:13;;;;;;;;;7.50;7.25;;;;;;;;3558621;39;112280;-76
2021/04/17 06:16:40;;;;;;;;;4.00;4.00;;;;;;;;3562461;39;113207;-82
2021/04/17 06:19:07;;;;;;;;;6.75;6.75;;;;;;;;3556749;39;112149;-76
2021/04/17 06:21:33;;;;;;;;;9.25;6.00;;;;;;;;3559398;39;113244;-76
2021/04/17 06:23:59;;;;;;;;;8.00;3.75;;;;;;;;3558174;39;114338;-83
2021/04/17 06:26:25;;;;;;;;;5.50;5.50;;;;;;;;3558222;39;112148;-75
2021/04/17 06:28:51;;;;;;;;;9.00;6.00;;;;;;;;3558344;39;113322;-74
2021/04/17 06:31:18;;;;;;;;;6.00;6.00;;;;;;;;3557518;39;113806;-73
2021/04/17 06:33:45;;;;;;;;;6.00;4.00;;;;;;;;3558748;39;111860;-72
2021/04/17 06:36:11;;;;;;;;;6.50;4.00;;;;;;;;3559283;39;113466;-75
2021/04/17 06:38:37;;;;;;;;;5.00;3.25;;;;;;;;3560713;39;113732;-75
2021/04/17 06:41:06;;;;;;;;;6.00;6.00;;;;;;;;3558246;39;112957;-75
2021/04/17 06:43:34;;;;;;;;;6.00;4.25;;;;;;;;3558533;39;113921;-72
2021/04/17 06:46:01;;;;;;;;;6.75;5.50;;;;;;;;3558126;39;112880;-73
2021/04/17 06:48:27;;;;;;;;;8.75;6.25;;;;;;;;3556476;39;113273;-75
2021/04/17 06:50:55;;;;;;;;;8.00;6.50;;;;;;;;3555994;39;114883;-76
2021/04/17 06:53:21;;;;;;;;;8.00;6.00;;;;;;;;3557199;39;112317;-74
2021/04/17 06:55:49;;;;;;;;;6.75;6.75;;;;;;;;3557186;39;113413;-78
2021/04/17 06:58:15;;;;;;;;;8.00;8.00;;;;;;;;3554952;39;114013;-76
2021/04/17 07:00:41;;;;;;;;;6.50;6.50;;;;;;;;3560708;39;113234;-76
2021/04/17 07:03:07;;;;;;;;;5.25;5.25;;;;;;;;3556086;39;114192;-75
2021/04/17 07:05:34;;;;;;;;;8.25;7.00;;;;;;;;3561556;39;112139;-77
2021/04/17 07:08:01;;;;;;;;;3.50;3.50;;;;;;;;3557317;39;112439;-76
2021/04/17 07:10:28;;;;;;;;;4.75;4.75;;;;;;;;3558307;39;113864;-77
2021/04/17 07:13:05;;;;;;;;;7.00;5.00;;;;;;;;3556659;39;112160;-80
2021/04/17 07:15:33;;;;;;;;;4.00;4.00;;;;;;;;3559497;39;113415;-76
2021/04/17 07:17:59;;;;;;;;;7.25;7.00;;;;;;;;3556950;39;114174;-79
2021/04/17 07:20:27;;;;;;;;;8.75;6.75;;;;;;;;3561641;39;111913;-76
2021/04/17 07:22:53;;;;;;;;;4.00;4.00;;;;;;;;3557511;39;113868;-73
2021/04/17 07:25:21;;;;;;;;;5.50;5.50;;;;;;;;3559039;39;112105;-71
2021/04/17 07:27:48;;;;;;;;;5.25;4.00;;;;;;;;3557292;39;113749;-72
2021/04/17 07:30:28;;;;;;;;;5.75;5.50;;;;;;;;3558667;39;113852;-72
2021/04/17 07:33:10;;;;;;;;;8.00;8.00;;;;;;;;3557774;39;112606;-72
2021/04/17 07:35:37;;;;;;;;;8.75;8.00;;;;;;;;3558214;39;113454;-72
2021/04/17 07:38:14;;;;;;;;;13.00;9.00;;;;;;;;3557363;39;114359;-77
2021/04/17 07:40:42;;;;;;;;;8.00;8.00;;;;;;;;3558298;39;112087;-81
2021/04/17 07:43:08;;;;;;;;;7.75;7.75;;;;;;;;3561359;39;113311;-76
2021/04/17 07:45:35;;;;;;;;;9.75;9.25;;;;;;;;3558161;39;111964;-80
2021/04/17 07:48:18;;;;;;;;;8.00;8.00;;;;;;;;3556537;39;113253;-80
2021/04/17 07:50:45;;;;;;;;;10.25;8.50;;;;;;;;3557445;39;113940;-75
2021/04/17 07:53:24;;;;;;;;;10.75;8.25;;;;;;;;3558575;39;112091;-73
2021/04/17 07:55:51;;;;;;;;;8.25;8.00;;;;;;;;3556604;39;112848;-77
2021/04/17 07:58:17;;;;;;;;;11.25;9.00;;;;;;;;3556475;39;113915;-76
2021/04/17 08:00:43;;;;;;;;;10.00;10.00;;;;;;;;3558837;39;112301;-73
2021/04/17 08:03:10;;;;;;;;;11.00;11.00;;;;;;;;3557272;39;113387;-76
2021/04/17 08:05:37;;;;;;;;;12.75;12.75;;;;;;;;3560601;39;114391;-73
2021/04/17 08:08:03;;;;;;;;;14.25;11.50;;;;;;;;3557739;39;113197;-73
2021/04/17 08:10:30;;;;;;;;;10.25;9.75;;;;;;;;3557141;39;113954;-71
2021/04/17 08:12:59;;;;;;;;;12.25;10.75;;;;;;;;3558783;39;112495;-73
2021/04/17 08:15:25;;;;;;;;;11.00;9.50;;;;;;;;3557489;39;113076;-75
2021/04/17 08:17:53;;;;;;;;;5.00;5.00;;;;;;;;3558537;39;114448;-71
2021/04/17 08:20:20;;;;;;;;;8.25;8.25;;;;;;;;3557117;39;112278;-76
2021/04/17 08:22:49;;;;;;;;;10.75;9.75;;;;;;;;3558888;39;113004;-73
2021/04/17 08:25:19;;;;;;;;;10.50;10.00;;;;;;;;3556503;39;113901;-73
2021/04/17 08:27:45;;;;;;;;;10.25;9.50;;;;;;;;3561180;39;111981;-74
2021/04/17 08:30:19;;;;;;;;;11.75;10.00;;;;;;;;3556660;39;114064;-74
2021/04/17 08:32:46;;;;;;;;;6.00;5.75;;;;;;;;3558320;39;113150;-74
2021/04/17 08:35:13;;;;;;;;;9.75;8.00;;;;;;;;3557094;39;113354;-76
2021/04/17 08:37:58;;;;;;;;;9.00;7.00;;;;;;;;3557491;39;114206;-73
2021/04/17 08:40:39;;;;;;;;;8.00;7.00;;;;;;;;3557075;39;112085;-73
2021/04/17 08:43:25;;;;;;;;;7.50;7.50;;;;;;;;3556605;39;112276;-72
2021/04/17 08:46:03;;;;;;;;;8.50;8.00;;;;;;;;3556388;39;113807;-70
2021/04/17 08:48:45;;;;;;;;;11.50;10.00;;;;;;;;3557172;39;112089;-73
2021/04/17 08:51:25;;;;;;;;;9.50;8.75;;;;;;;;3557313;39;113368;-74
2021/04/17 08:53:52;;;;;;;;;9.00;9.00;;;;;;;;3556915;39;111852;-74
2021/04/17 08:56:18;;;;;;;;;9.25;9.25;;;;;;;;3558303;39;113184;-74
2021/04/17 08:59:07;;;;;;;;;10.00;8.50;;;;;;;;3556613;39;114950;-76
2021/04/17 09:01:38;;;;;;;;;9.00;8.00;;;;;;;;3557846;39;111855;-82
2021/04/17 09:04:08;;;;;;;;;8.25;8.25;;;;;;;;3558036;39;114189;-78
2021/04/17 09:06:41;;;;;;;;;8.00;8.00;;;;;;;;3557047;39;113944;-79
2021/04/17 09:09:25;;;;;;;;;10.00;7.25;;;;;;;;3555470;39;112077;-74
2021/04/17 09:11:52;;;;;;;;;9.25;8.50;;;;;;;;3556617;39;112449;-75
2021/04/17 09:14:37;;;;;;;;;8.75;8.75;;;;;;;;3557912;39;113069;-76
2021/04/17 09:17:06;;;;;;;;;8.75;8.75;;;;;;;;3556655;39;113987;-74
2021/04/17 09:19:49;;;;;;;;;7.75;7.75;;;;;;;;3555968;39;112586;-76
2021/04/17 09:22:30;;;;;;;;;9.75;8.00;;;;;;;;3555258;39;112000;-74
2021/04/17 09:24:57;;;;;;;;;9.00;9.00;;;;;;;;3555434;39;112698;-76
2021/04/17 09:27:23;;;;;;;;;9.00;9.00;;;;;;;;3556439;39;113925;-77
2021/04/17 09:29:56;;;;;;;;;9.25;8.00;;;;;;;;3555442;39;111852;-76
2021/04/17 09:32:23;;;;;;;;;7.00;6.50;;;;;;;;3557543;39;113275;-75
2021/04/17 09:34:49;;;;;;;;;6.75;6.75;;;;;;;;3558603;39;113918;-74
2021/04/17 09:37:15;;;;;;;;;7.00;7.00;;;;;;;;3556116;39;113964;-72
2021/04/17 09:39:45;;;;;;;;;7.75;7.50;;;;;;;;3557745;39;114082;-72
2021/04/17 09:42:11;;;;;;;;;9.00;8.00;;;;;;;;3557645;39;111865;-72
2021/04/17 09:44:44;;;;;;;;;8.33;7.33;;;;;;;;3556468;39;113268;-71
2021/04/17 09:47:11;;;;;;;;;8.00;8.00;;;;;;;;3557760;39;113725;-74
2021/04/17 09:49:39;;;;;;;;;8.00;8.00;;;;;;;;3558869;39;111957;-75
2021/04/17 09:52:06;;;;;;;;;7.33;7.33;;;;;;;;3558459;39;112973;-73
2021/04/17 09:54:33;;;;;;;;;8.67;7.67;;;;;;;;3559235;39;113897;-73
2021/04/17 09:57:04;;;;;;;;;11.33;8.00;;;;;;;;3561738;39;112040;-73
2021/04/17 09:59:30;;;;;;;;;9.00;9.00;;;;;;;;3556754;39;114302;-73
2021/04/17 10:01:57;;;;;;;;;7.67;7.67;;;;;;;;3557192;39;112150;-73
2021/04/17 10:04:24;;;;;;;;;8.33;7.33;;;;;;;;3557968;39;113508;-72
2021/04/17 10:06:58;;;;;;;;;7.00;6.00;;;;;;;;3557738;39;115539;-72
2021/04/17 10:09:24;;;;;;;;;8.00;8.00;;;;;;;;3558645;39;112267;-71
2021/04/17 10:14:10;;;;;;;;;8.80;7.80;;;;;;;;3566802;39;111915;-75
2021/04/17 10:16:37;;;;;;;;;9.75;7.75;;;;;;;;3560379;39;113953;-79
2021/04/17 10:19:04;;;;;;;;;9.25;9.25;;;;;;;;3560643;39;111952;-72
2021/04/17 10:21:31;;;;;;;;;8.50;8.50;;;;;;;;3559468;39;114539;-75
2021/04/17 10:24:17;;;;;;;;;10.50;8.75;;;;;;;;3554777;39;113832;-73
2021/04/17 10:26:54;;;;;;;;;10.00;10.00;;;;;;;;3561006;39;112007;-75
2021/04/17 10:29:22;;;;;;;;;9.00;8.00;;;;;;;;3560495;39;114154;-75
2021/04/17 10:31:58;;;;;;;;;11.50;9.25;;;;;;;;3559203;39;113846;-78
2021/04/17 10:34:24;;;;;;;;;11.50;9.25;;;;;;;;3562354;39;112263;-81
2021/04/17 10:36:55;;;;;;;;;7.75;7.75;;;;;;;;3559457;39;115016;-77
2021/04/17 10:39:21;;;;;;;;;9.50;8.00;;;;;;;;3560007;39;111896;-77
2021/04/17 10:41:56;;;;;;;;;8.25;8.00;;;;;;;;3559855;39;113255;-74
2021/04/17 10:44:23;;;;;;;;;9.25;7.75;;;;;;;;3558423;39;113939;-74
2021/04/17 10:46:49;;;;;;;;;9.00;8.50;;;;;;;;3559679;39;112275;-75
2021/04/17 10:49:25;;;;;;;;;9.25;8.00;;;;;;;;3557516;39;113330;-74
2021/04/17 10:51:51;;;;;;;;;8.25;8.00;;;;;;;;3559564;39;113940;-77
2021/04/17 10:54:17;;;;;;;;;9.75;8.00;;;;;;;;3559530;39;113167;-77
2021/04/17 10:56:55;;;;;;;;;9.75;9.75;;;;;;;;3561764;39;112830;-75
2021/04/17 10:59:21;;;;;;;;;7.25;7.25;;;;;;;;3561836;39;112421;-77
2021/04/17 11:01:48;;;;;;;;;5.00;4.75;;;;;;;;3558292;39;113187;-71
2021/04/17 11:04:15;;;;;;;;;10.50;7.75;;;;;;;;3559363;39;114014;-73
2021/04/17 11:06:46;;;;;;;;;9.25;7.25;;;;;;;;3561082;39;112196;-72
2021/04/17 11:09:13;;;;;;;;;9.75;9.00;;;;;;;;3560221;39;115257;-71
2021/04/17 11:11:50;;;;;;;;;6.50;6.50;;;;;;;;3560428;39;114006;-72
2021/04/17 11:14:19;;;;;;;;;8.00;6.75;;;;;;;;3559883;39;111765;-73
2021/04/17 11:16:46;;;;;;;;;9.50;9.00;;;;;;;;3560302;39;113785;-75
2021/04/17 11:19:23;;;;;;;;;8.00;8.00;;;;;;;;3562687;39;115286;-70
2021/04/17 11:22:04;;;;;;;;;8.25;7.75;;;;;;;;3559160;39;113433;-71
2021/04/17 11:24:30;;;;;;;;;6.00;6.00;;;;;;;;3555166;39;114412;-72
2021/04/17 11:26:56;;;;;;;;;7.50;5.75;;;;;;;;3554097;39;111881;-71
2021/04/17 11:29:22;;;;;;;;;7.50;7.50;;;;;;;;3550814;39;114067;-71
2021/04/17 11:31:48;;;;;;;;;9.50;9.50;;;;;;;;3553685;39;113779;-72
2021/04/17 11:34:17;;;;;;;;;10.00;10.00;;;;;;;;3553255;39;113499;-71
2021/04/17 11:36:44;;;;;;;;;8.75;8.25;;;;;;;;3554554;39;114126;-71
2021/04/17 11:39:10;;;;;;;;;12.00;10.00;;;;;;;;3553245;39;113878;-70
2021/04/17 11:41:36;;;;;;;;;9.00;7.75;;;;;;;;3556847;39;111974;-70
2021/04/17 11:44:02;;;;;;;;;7.00;6.00;;;;;;;;3553076;39;114222;-69
2021/04/17 11:46:29;;;;;;;;;10.00;8.00;;;;;;;;3551990;39;112066;-70
2021/04/17 11:48:55;;;;;;;;;5.00;5.00;;;;;;;;3553586;39;113644;-70
2021/04/17 11:51:21;;;;;;;;;8.75;8.75;;;;;;;;3550486;39;113915;-72
2021/04/17 11:53:49;;;;;;;;;6.00;6.00;;;;;;;;3551488;39;111876;-71
2021/04/17 11:56:15;;;;;;;;;6.50;6.50;;;;;;;;3549473;39;113180;-68
2021/04/17 11:58:41;;;;;;;;;6.00;6.00;;;;;;;;3550872;39;113976;-69
2021/04/17 12:01:07;;;;;;;;;7.25;6.25;;;;;;;;3547722;39;111744;-68
2021/04/17 12:03:33;;;;;;;;;6.75;6.75;;;;;;;;3552852;39;112789;-69
2021/04/17 12:05:59;;;;;;;;;6.50;6.00;;;;;;;;3551083;39;112328;-71
2021/04/17 12:08:26;;;;;;;;;8.25;7.25;;;;;;;;3554671;39;113147;-71
2021/04/17 12:10:53;;;;;;;;;8.00;8.00;;;;;;;;3552726;39;113852;-70
2021/04/17 12:13:19;;;;;;;;;7.75;6.75;;;;;;;;3523823;39;112257;-70
2021/04/17 12:15:46;;;;;;;;;9.25;8.00;;;;;;;;3511544;39;113469;-69
2021/04/17 12:18:12;;;;;;;;;6.00;6.00;;;;;;;;3510370;39;113901;-69
2021/04/17 12:20:38;;;;;;;;;9.25;8.25;;;;;;;;3512648;40;112781;-71
2021/04/17 12:23:04;;;;;;;;;8.00;8.00;;;;;;;;3511810;39;113182;-70
2021/04/17 12:25:31;;;;;;;;;8.00;8.00;;;;;;;;3514214;39;112014;-70
2021/04/17 12:27:58;;;;;;;;;14.00;9.25;;;;;;;;3511105;39;113295;-68
2021/04/17 12:30:24;;;;;;;;;10.25;9.00;;;;;;;;3511228;39;113911;-70
2021/04/17 12:32:51;;;;;;;;;9.00;8.00;;;;;;;;3511408;39;112018;-71
2021/04/17 12:35:20;;;;;;;;;9.00;9.00;;;;;;;;3514046;39;113394;-69
2021/04/17 12:37:47;;;;;;;;;10.25;8.75;;;;;;;;3518711;39;112926;-69
2021/04/17 12:40:13;;;;;;;;;9.00;8.00;;;;;;;;3514777;40;112506;-68
2021/04/17 12:42:40;;;;;;;;;8.25;8.25;;;;;;;;3513015;40;113326;-70
2021/04/17 12:45:08;;;;;;;;;8.00;6.75;;;;;;;;3515068;40;113874;-68
2021/04/17 12:47:34;;;;;;;;;11.00;8.50;;;;;;;;3513319;40;113585;-68
2021/04/17 12:50:01;;;;;;;;;9.75;8.00;;;;;;;;3512008;40;113788;-68
2021/04/17 12:52:27;;;;;;;;;9.00;9.00;;;;;;;;3513033;40;111926;-75
2021/04/17 12:54:53;;;;;;;;;11.00;8.50;;;;;;;;3514246;40;113896;-75
2021/04/17 12:57:19;;;;;;;;;8.00;7.50;;;;;;;;3512972;40;114031;-76
2021/04/17 13:00:40;;;;;;;;;10.60;10.60;;;;;;;;3572322;39;112025;-67
2021/04/17 13:03:06;;;;;;;;;8.50;8.50;;;;;;;;3566532;39;114005;-68
2021/04/17 13:05:32;;;;;;;;;9.50;9.50;;;;;;;;3566449;39;111927;-67
2021/04/17 13:07:58;;;;;;;;;11.00;11.00;;;;;;;;3567863;39;113010;-67
2021/04/17 13:10:24;;;;;;;;;12.00;12.00;;;;;;;;3561964;39;112942;-67
2021/04/17 13:12:50;;;;;;;;;9.75;9.75;;;;;;;;3569680;39;111923;-68
2021/04/17 13:15:17;;;;;;;;;9.75;9.75;;;;;;;;3566456;39;113041;-68
2021/04/17 13:17:43;;;;;;;;;10.75;10.75;;;;;;;;3563750;39;112564;-67
2021/04/17 13:20:10;;;;;;;;;14.00;12.75;;;;;;;;3569151;39;113043;-66
2021/04/17 13:22:36;;;;;;;;;15.75;13.00;;;;;;;;3566223;39;113878;-66
2021/04/17 13:25:03;;;;;;;;;14.00;13.00;;;;;;;;3567555;39;112084;-67
2021/04/17 13:27:29;;;;;;;;;12.00;12.00;;;;;;;;3568231;39;113410;-65
2021/04/17 13:29:55;;;;;;;;;11.50;11.50;;;;;;;;3564561;39;112863;-71
2021/04/17 13:32:21;;;;;;;;;13.75;12.00;;;;;;;;3563642;39;112296;-69
2021/04/17 13:34:48;;;;;;;;;15.50;14.00;;;;;;;;3566903;39;113919;-68
2021/04/17 13:37:14;;;;;;;;;13.00;11.75;;;;;;;;3565494;39;113500;-67
2021/04/17 13:39:40;;;;;;;;;11.50;11.00;;;;;;;;3566514;39;112288;-68
2021/04/17 13:42:06;;;;;;;;;12.50;10.50;;;;;;;;3569493;39;113404;-68
2021/04/17 13:44:33;;;;;;;;;12.75;11.50;;;;;;;;3566707;39;111921;-67
2021/04/17 13:47:00;;;;;;;;;14.50;11.75;;;;;;;;3565529;39;113227;-68
2021/04/17 13:49:26;;;;;;;;;12.00;11.25;;;;;;;;3566733;39;113831;-68
2021/04/17 13:51:53;;;;;;;;;11.50;10.25;;;;;;;;3565529;39;111788;-67
2021/04/17 13:54:19;;;;;;;;;7.00;4.75;;;;;;;;3567074;39;113322;-67
2021/04/17 13:56:45;;;;;;;;;8.25;8.25;;;;;;;;3565277;39;113883;-67
2021/04/17 13:59:11;;;;;;;;;12.00;12.00;;;;;;;;3566271;39;112116;-66
2021/04/17 14:01:37;;;;;;;;;12.00;11.00;;;;;;;;3566333;39;113543;-66
2021/04/17 14:04:03;;;;;;;;;14.00;10.25;;;;;;;;3567910;39;114160;-65
2021/04/17 14:06:29;;;;;;;;;11.50;10.75;;;;;;;;3566807;39;113558;-66
2021/04/17 14:08:56;;;;;;;;;11.50;11.00;;;;;;;;3561250;39;112842;-66
2021/04/17 14:11:23;;;;;;;;;11.50;10.25;;;;;;;;3562289;39;111742;-66
2021/04/17 14:13:49;;;;;;;;;13.50;12.50;;;;;;;;3556012;39;112063;-69
2021/04/17 14:16:15;;;;;;;;;12.75;12.50;;;;;;;;3562715;39;114778;-69
2021/04/17 14:18:41;;;;;;;;;13.00;10.25;;;;;;;;3563516;39;113571;-69
2021/04/17 14:21:12;;;;;;;;;9.25;9.25;;;;;;;;3563517;39;113226;-68
2021/04/17 14:23:38;;;;;;;;;11.75;9.50;;;;;;;;3562182;39;113854;-68
2021/04/17 14:26:05;;;;;;;;;8.25;8.00;;;;;;;;3566087;39;112836;-70
2021/04/17 14:28:31;;;;;;;;;13.25;13.00;;;;;;;;3561262;39;113931;-68
2021/04/17 14:30:57;;;;;;;;;9.75;9.75;;;;;;;;3559499;39;112747;-71
2021/04/17 14:33:23;;;;;;;;;10.75;10.75;;;;;;;;3561152;39;113526;-71